Terminal Aerodrome Forecast
Issued by NWS Amarillo, TX

Home | Current Version | Previous Version | Text Only | Print | Product List | Glossary On
Versions: 1 2 3 4 5 6 7 8 9 10 11 12
378
FTUS44 KAMA 211728
TAFGUY
TAF
KGUY 211728Z 2118/2218 02022G32KT P6SM BKN200
     FM220000 VRB05KT P6SM SCT250
     FM221600 22010KT P6SM SKC=

USA.gov is the U.S. government's official web portal to all federal, state and local government web resources and services.